SWA2421 KHOU-KSMF
Flight info
| Callsign | SWA2421 |
|---|---|
| Flight time | N/A |
| Altitude | 32000 |
| Route | RETYR8 JCT JETDE GECKE UNNOS CNX BUKKO HUNVI NAVJO DEANN WINEN KITTN KATTS CRASY SLMMR5 |
| Aircraft | B38M/M-SADE2E3GHIJ4J7P2RWZ/LB1D1 |
Departure
| Time | N/A |
|---|---|
| Airport | William P. Hobby Airport (KHOU) |
Arrival
| Time | 2026-05-07 02:48 |
|---|---|
| Airport | Sacramento International Airport (KSMF) |
| Time | Latitude | Longitude | Altitude | Speed | Heading |
|---|---|---|---|---|---|
| 2026-05-06 23:00 | 29.64013 | -95.67676 | 16551 ft | 352 kts | 304° |
| 2026-05-06 23:00 | 29.65568 | -95.69863 | 17219 ft | 355 kts | 304° |
| 2026-05-06 23:01 | 29.67133 | -95.72067 | 17853 ft | 357 kts | 304° |
| 2026-05-06 23:01 | 29.68711 | -95.74290 | 18419 ft | 360 kts | 304° |
| 2026-05-06 23:01 | 29.70278 | -95.76497 | 18961 ft | 361 kts | 304° |
| 2026-05-06 23:01 | 29.71866 | -95.78738 | 19545 ft | 362 kts | 303° |
| 2026-05-06 23:02 | 29.73215 | -95.81150 | 20079 ft | 359 kts | 296° |
| 2026-05-06 23:02 | 29.74516 | -95.83619 | 20602 ft | 361 kts | 297° |
| 2026-05-06 23:02 | 29.75835 | -95.86085 | 21149 ft | 363 kts | 297° |
| 2026-05-06 23:02 | 29.77139 | -95.88573 | 21686 ft | 363 kts | 296° |
| 2026-05-06 23:03 | 29.78422 | -95.91083 | 22224 ft | 365 kts | 296° |
| 2026-05-06 23:03 | 29.79716 | -95.93601 | 22741 ft | 366 kts | 296° |
| 2026-05-06 23:03 | 29.81018 | -95.96130 | 23249 ft | 368 kts | 296° |
| 2026-05-06 23:03 | 29.82325 | -95.98667 | 23687 ft | 370 kts | 295° |
| 2026-05-06 23:04 | 29.83641 | -96.01223 | 24086 ft | 371 kts | 295° |
| 2026-05-06 23:04 | 29.84959 | -96.03783 | 24488 ft | 373 kts | 295° |
| 2026-05-06 23:04 | 29.86285 | -96.06361 | 24877 ft | 374 kts | 295° |
| 2026-05-06 23:04 | 29.87613 | -96.08945 | 25271 ft | 376 kts | 295° |
| 2026-05-06 23:05 | 29.88950 | -96.11549 | 25643 ft | 378 kts | 295° |
| 2026-05-06 23:05 | 29.90294 | -96.14166 | 26029 ft | 380 kts | 295° |
| 2026-05-06 23:05 | 29.91626 | -96.16764 | 26393 ft | 382 kts | 295° |
| 2026-05-06 23:05 | 29.92966 | -96.19413 | 26749 ft | 382 kts | 291° |
| 2026-05-06 23:06 | 29.93804 | -96.22277 | 27034 ft | 377 kts | 277° |
| 2026-05-06 23:06 | 29.94311 | -96.25259 | 27328 ft | 380 kts | 278° |
| 2026-05-06 23:06 | 29.94823 | -96.28254 | 27701 ft | 381 kts | 278° |
| 2026-05-06 23:06 | 29.95318 | -96.31257 | 28075 ft | 383 kts | 277° |
| 2026-05-06 23:07 | 29.95805 | -96.34292 | 28423 ft | 385 kts | 277° |
| 2026-05-06 23:07 | 29.96288 | -96.37337 | 28769 ft | 386 kts | 277° |
| 2026-05-06 23:07 | 29.96776 | -96.40389 | 29108 ft | 388 kts | 277° |
| 2026-05-06 23:07 | 29.97253 | -96.43464 | 29442 ft | 390 kts | 277° |
| 2026-05-06 23:08 | 29.97733 | -96.46547 | 29765 ft | 392 kts | 277° |
| 2026-05-06 23:08 | 29.98215 | -96.49636 | 30104 ft | 392 kts | 277° |
| 2026-05-06 23:08 | 29.98697 | -96.52729 | 30462 ft | 391 kts | 277° |
| 2026-05-06 23:08 | 29.99172 | -96.55777 | 30819 ft | 391 kts | 276° |
| 2026-05-06 23:09 | 29.99652 | -96.58893 | 31183 ft | 390 kts | 276° |
| 2026-05-06 23:09 | 29.99864 | -96.60267 | 31350 ft | 390 kts | 276° |
| 2026-05-06 23:09 | 30.00086 | -96.61710 | 31519 ft | 389 kts | 276° |
| 2026-05-06 23:12 | 30.00556 | -96.64772 | 31779 ft | 390 kts | 276° |
| 2026-05-06 23:12 | 30.01030 | -96.67854 | 31829 ft | 388 kts | 276° |
| 2026-05-06 23:13 | 30.01966 | -96.73965 | 31865 ft | 387 kts | 276° |
| 2026-05-06 23:13 | 30.02899 | -96.80081 | 31905 ft | 387 kts | 276° |
| 2026-05-06 23:14 | 30.03840 | -96.86182 | 31933 ft | 383 kts | 276° |
| 2026-05-06 23:14 | 30.04314 | -96.89225 | 32043 ft | 388 kts | 276° |
| 2026-05-06 23:14 | 30.04767 | -96.92293 | 31939 ft | 386 kts | 275° |
| 2026-05-06 23:15 | 30.05673 | -96.98361 | 31962 ft | 387 kts | 275° |
| 2026-05-06 23:15 | 30.06139 | -97.01461 | 31965 ft | 386 kts | 275° |
| 2026-05-06 23:17 | 30.06686 | -97.05096 | 31960 ft | 390 kts | 275° |
| 2026-05-06 23:18 | 30.06807 | -97.05901 | 31956 ft | 392 kts | 275° |
| 2026-05-06 23:19 | 30.07238 | -97.08772 | 31947 ft | 394 kts | 275° |
| 2026-05-06 23:20 | 30.08161 | -97.14931 | 31935 ft | 387 kts | 275° |
| 2026-05-06 23:20 | 30.09074 | -97.21043 | 31926 ft | 386 kts | 275° |
| 2026-05-06 23:21 | 30.09985 | -97.27164 | 31914 ft | 387 kts | 275° |
| 2026-05-06 23:21 | 30.10888 | -97.33251 | 31902 ft | 387 kts | 275° |
| 2026-05-06 23:22 | 30.11793 | -97.39367 | 31921 ft | 387 kts | 275° |
| 2026-05-06 23:22 | 30.12696 | -97.45494 | 31934 ft | 387 kts | 275° |
| 2026-05-06 23:23 | 30.13596 | -97.51623 | 31946 ft | 387 kts | 275° |
| 2026-05-06 23:23 | 30.13973 | -97.54196 | 31950 ft | 387 kts | 275° |
| 2026-05-06 23:25 | 30.14163 | -97.55498 | 31949 ft | 387 kts | 274° |
| 2026-05-06 23:26 | 30.14535 | -97.58037 | 31952 ft | 387 kts | 274° |
| 2026-05-06 23:27 | 30.14879 | -97.60394 | 31954 ft | 388 kts | 274° |
| 2026-05-06 23:27 | 30.15337 | -97.63532 | 31959 ft | 388 kts | 274° |
| 2026-05-06 23:28 | 30.15680 | -97.65884 | 31953 ft | 388 kts | 274° |
| 2026-05-06 23:35 | 30.16217 | -97.69573 | 31944 ft | 389 kts | 274° |
| 2026-05-06 23:35 | 30.17224 | -97.75740 | 31954 ft | 393 kts | 278° |
| 2026-05-06 23:36 | 30.18523 | -97.81867 | 31954 ft | 392 kts | 277° |
| 2026-05-06 23:36 | 30.19786 | -97.87997 | 31946 ft | 392 kts | 277° |
| 2026-05-06 23:37 | 30.21041 | -97.94129 | 31941 ft | 392 kts | 277° |
| 2026-05-06 23:37 | 30.22295 | -98.00273 | 31933 ft | 392 kts | 277° |
| 2026-05-06 23:38 | 30.23535 | -98.06370 | 31928 ft | 392 kts | 277° |
| 2026-05-06 23:38 | 30.24782 | -98.12507 | 31930 ft | 392 kts | 277° |
| 2026-05-06 23:39 | 30.26025 | -98.18648 | 31944 ft | 392 kts | 277° |
| 2026-05-06 23:39 | 30.27264 | -98.24783 | 31951 ft | 392 kts | 277° |
| 2026-05-06 23:40 | 30.28501 | -98.30924 | 31959 ft | 392 kts | 277° |
| 2026-05-06 23:40 | 30.29752 | -98.37059 | 31970 ft | 392 kts | 277° |
| 2026-05-06 23:41 | 30.31059 | -98.43147 | 31975 ft | 392 kts | 277° |
| 2026-05-06 23:41 | 30.32364 | -98.49270 | 31975 ft | 392 kts | 277° |
| 2026-05-06 23:42 | 30.33526 | -98.54740 | 31961 ft | 392 kts | 277° |
| 2026-05-06 23:43 | 30.33996 | -98.56956 | 31959 ft | 392 kts | 277° |
| 2026-05-06 23:44 | 30.35296 | -98.63093 | 31949 ft | 392 kts | 277° |
| 2026-05-06 23:44 | 30.36593 | -98.69228 | 31938 ft | 392 kts | 277° |
| 2026-05-06 23:45 | 30.37887 | -98.75366 | 31936 ft | 392 kts | 277° |
| 2026-05-06 23:45 | 30.39177 | -98.81504 | 31935 ft | 392 kts | 277° |
| 2026-05-06 23:46 | 30.40464 | -98.87637 | 31933 ft | 392 kts | 277° |
| 2026-05-06 23:46 | 30.41747 | -98.93773 | 31932 ft | 392 kts | 277° |
| 2026-05-06 23:47 | 30.43028 | -98.99911 | 31928 ft | 392 kts | 276° |
| 2026-05-06 23:47 | 30.44306 | -99.06049 | 31926 ft | 392 kts | 276° |
| 2026-05-06 23:48 | 30.45573 | -99.12151 | 31935 ft | 392 kts | 276° |
| 2026-05-06 23:48 | 30.46844 | -99.18288 | 31934 ft | 391 kts | 276° |
| 2026-05-06 23:49 | 30.48114 | -99.24432 | 31937 ft | 392 kts | 276° |
| 2026-05-06 23:49 | 30.49379 | -99.30571 | 31936 ft | 392 kts | 276° |
| 2026-05-06 23:50 | 30.50642 | -99.36717 | 31938 ft | 392 kts | 276° |
| 2026-05-06 23:50 | 30.52533 | -99.45944 | 31956 ft | 392 kts | 276° |
| 2026-05-06 23:51 | 30.53790 | -99.52099 | 31963 ft | 392 kts | 276° |
| 2026-05-06 23:51 | 30.55045 | -99.58258 | 31977 ft | 392 kts | 276° |
| 2026-05-06 23:52 | 30.56298 | -99.64423 | 31983 ft | 393 kts | 275° |
| 2026-05-06 23:52 | 30.57542 | -99.70556 | 31981 ft | 392 kts | 275° |
| 2026-05-06 23:53 | 30.58789 | -99.76722 | 31995 ft | 393 kts | 275° |
| 2026-05-06 23:53 | 30.60439 | -99.82800 | 31972 ft | 409 kts | 290° |
| 2026-05-06 23:54 | 30.63369 | -99.88507 | 31973 ft | 412 kts | 290° |
| 2026-05-06 23:54 | 30.66331 | -99.94207 | 31964 ft | 412 kts | 291° |
| 2026-05-06 23:55 | 30.69309 | -99.99909 | 31944 ft | 412 kts | 291° |
| 2026-05-06 23:55 | 30.72279 | -100.05600 | 31937 ft | 412 kts | 291° |
| 2026-05-06 23:56 | 30.75250 | -100.11299 | 31928 ft | 412 kts | 291° |
| 2026-05-06 23:56 | 30.78211 | -100.16990 | 31929 ft | 412 kts | 291° |
| 2026-05-06 23:57 | 30.81174 | -100.22692 | 31930 ft | 412 kts | 290° |
| 2026-05-06 23:57 | 30.84112 | -100.28353 | 31926 ft | 411 kts | 290° |
| 2026-05-06 23:58 | 30.87068 | -100.34060 | 31934 ft | 411 kts | 290° |
| 2026-05-06 23:58 | 30.90019 | -100.39763 | 31933 ft | 411 kts | 290° |
| 2026-05-06 23:59 | 30.92968 | -100.45472 | 31932 ft | 411 kts | 290° |
| 2026-05-06 23:59 | 30.95914 | -100.51183 | 31936 ft | 411 kts | 290° |
| 2026-05-07 00:00 | 30.98857 | -100.56895 | 31934 ft | 411 kts | 290° |
| 2026-05-07 00:00 | 31.01300 | -100.61646 | 31930 ft | 411 kts | 290° |
| 2026-05-07 00:01 | 31.04732 | -100.68326 | 31933 ft | 411 kts | 290° |
| 2026-05-07 00:01 | 31.07660 | -100.74035 | 31930 ft | 410 kts | 290° |
| 2026-05-07 00:02 | 31.10574 | -100.79724 | 31925 ft | 410 kts | 290° |
| 2026-05-07 00:02 | 31.13560 | -100.85420 | 31919 ft | 418 kts | 296° |
| 2026-05-07 00:03 | 31.17157 | -100.90807 | 31922 ft | 420 kts | 296° |
| 2026-05-07 00:03 | 31.20678 | -100.96239 | 31907 ft | 419 kts | 295° |
| 2026-05-07 00:04 | 31.24190 | -101.01698 | 31922 ft | 420 kts | 295° |
| 2026-05-07 00:04 | 31.27701 | -101.07169 | 31927 ft | 421 kts | 295° |
| 2026-05-07 00:05 | 31.31191 | -101.12615 | 31902 ft | 421 kts | 295° |
| 2026-05-07 00:05 | 31.34709 | -101.18112 | 31902 ft | 423 kts | 295° |
| 2026-05-07 00:06 | 31.38227 | -101.23618 | 31897 ft | 423 kts | 295° |
| 2026-05-07 00:06 | 31.41753 | -101.29144 | 31907 ft | 424 kts | 295° |
| 2026-05-07 00:07 | 31.45283 | -101.34682 | 31892 ft | 424 kts | 295° |
| 2026-05-07 00:07 | 31.48806 | -101.40219 | 31899 ft | 424 kts | 295° |
| 2026-05-07 00:08 | 31.52304 | -101.45724 | 31888 ft | 424 kts | 295° |
| 2026-05-07 00:08 | 31.55818 | -101.51264 | 31891 ft | 423 kts | 295° |
| 2026-05-07 00:09 | 31.59331 | -101.56808 | 31885 ft | 423 kts | 295° |
| 2026-05-07 00:09 | 31.62837 | -101.62350 | 31882 ft | 423 kts | 295° |
| 2026-05-07 00:10 | 31.66340 | -101.67895 | 31882 ft | 423 kts | 294° |
| 2026-05-07 00:10 | 31.69837 | -101.73438 | 31885 ft | 422 kts | 295° |
| 2026-05-07 00:11 | 31.73324 | -101.78973 | 31888 ft | 420 kts | 294° |
| 2026-05-07 00:11 | 31.76789 | -101.84481 | 31889 ft | 418 kts | 294° |
| 2026-05-07 00:12 | 31.80234 | -101.89966 | 31909 ft | 417 kts | 294° |
| 2026-05-07 00:12 | 31.83669 | -101.95442 | 31932 ft | 415 kts | 294° |
| 2026-05-07 00:13 | 31.87090 | -102.00905 | 31939 ft | 414 kts | 294° |
| 2026-05-07 00:13 | 31.90499 | -102.06354 | 31965 ft | 413 kts | 294° |
| 2026-05-07 00:14 | 31.93902 | -102.11802 | 31973 ft | 413 kts | 294° |
| 2026-05-07 00:14 | 31.97281 | -102.17220 | 31980 ft | 413 kts | 294° |
| 2026-05-07 00:15 | 32.00674 | -102.22669 | 31977 ft | 412 kts | 294° |
| 2026-05-07 00:15 | 32.04067 | -102.28125 | 31970 ft | 412 kts | 294° |
| 2026-05-07 00:16 | 32.07455 | -102.33580 | 31963 ft | 412 kts | 294° |
| 2026-05-07 00:16 | 32.10836 | -102.39032 | 31951 ft | 412 kts | 294° |
| 2026-05-07 00:17 | 32.14211 | -102.44482 | 31942 ft | 411 kts | 294° |
| 2026-05-07 00:17 | 32.17017 | -102.49020 | 31923 ft | 411 kts | 294° |
| 2026-05-07 00:18 | 32.20380 | -102.54464 | 31909 ft | 410 kts | 294° |
| 2026-05-07 00:18 | 32.23734 | -102.59902 | 31895 ft | 408 kts | 293° |
| 2026-05-07 00:19 | 32.27069 | -102.65318 | 31897 ft | 406 kts | 293° |
| 2026-05-07 00:19 | 32.30384 | -102.70707 | 31891 ft | 405 kts | 293° |
| 2026-05-07 00:20 | 32.33685 | -102.76084 | 31891 ft | 402 kts | 293° |
| 2026-05-07 00:20 | 32.36966 | -102.81431 | 31902 ft | 401 kts | 293° |
| 2026-05-07 00:21 | 32.40230 | -102.86760 | 31903 ft | 398 kts | 293° |
| 2026-05-07 00:21 | 32.43471 | -102.92058 | 31895 ft | 396 kts | 292° |
| 2026-05-07 00:22 | 32.46675 | -102.97301 | 31884 ft | 395 kts | 293° |
| 2026-05-07 00:22 | 32.49535 | -103.02756 | 31904 ft | 388 kts | 288° |
| 2026-05-07 00:23 | 32.52308 | -103.08267 | 31927 ft | 390 kts | 289° |
| 2026-05-07 00:23 | 32.55106 | -103.13788 | 31949 ft | 391 kts | 289° |
| 2026-05-07 00:24 | 32.57905 | -103.19314 | 31968 ft | 391 kts | 289° |
| 2026-05-07 00:24 | 32.60710 | -103.24858 | 31981 ft | 392 kts | 289° |
| 2026-05-07 00:25 | 32.63516 | -103.30415 | 31979 ft | 392 kts | 289° |
| 2026-05-07 00:25 | 32.66320 | -103.35975 | 31965 ft | 392 kts | 289° |
| 2026-05-07 00:26 | 32.69120 | -103.41535 | 31941 ft | 392 kts | 289° |
| 2026-05-07 00:26 | 32.71919 | -103.47101 | 31913 ft | 392 kts | 289° |
| 2026-05-07 00:27 | 32.74714 | -103.52668 | 31885 ft | 392 kts | 289° |
| 2026-05-07 00:27 | 32.77508 | -103.58242 | 31856 ft | 392 kts | 289° |
| 2026-05-07 00:28 | 32.80284 | -103.63788 | 31828 ft | 393 kts | 289° |
| 2026-05-07 00:28 | 32.83073 | -103.69369 | 31826 ft | 393 kts | 289° |
| 2026-05-07 00:29 | 32.85863 | -103.74960 | 31820 ft | 393 kts | 289° |
| 2026-05-07 00:30 | 32.91433 | -103.86146 | 31826 ft | 393 kts | 289° |
| 2026-05-07 00:30 | 32.94218 | -103.91747 | 31822 ft | 393 kts | 290° |
| 2026-05-07 00:31 | 32.95908 | -103.94379 | 31814 ft | 412 kts | 302° |
| 2026-05-07 00:31 | 32.97929 | -103.96805 | 31802 ft | 413 kts | 301° |
| 2026-05-07 00:31 | 33.01957 | -104.01694 | 31815 ft | 413 kts | 302° |
| 2026-05-07 00:32 | 33.05968 | -104.06530 | 31821 ft | 413 kts | 302° |
| 2026-05-07 00:32 | 33.10004 | -104.11400 | 31817 ft | 413 kts | 302° |
| 2026-05-07 00:33 | 33.14036 | -104.16270 | 31824 ft | 412 kts | 302° |
| 2026-05-07 00:33 | 33.18059 | -104.21136 | 31845 ft | 412 kts | 302° |
| 2026-05-07 00:34 | 33.22085 | -104.26013 | 31871 ft | 412 kts | 302° |
| 2026-05-07 00:34 | 33.26109 | -104.30894 | 31897 ft | 412 kts | 302° |
| 2026-05-07 00:35 | 33.30122 | -104.35770 | 31921 ft | 412 kts | 302° |
| 2026-05-07 00:35 | 33.34136 | -104.40651 | 31937 ft | 412 kts | 302° |
| 2026-05-07 00:36 | 33.38148 | -104.45540 | 31944 ft | 411 kts | 302° |
| 2026-05-07 00:36 | 33.42156 | -104.50428 | 31933 ft | 411 kts | 301° |
| 2026-05-07 00:37 | 33.46159 | -104.55317 | 31910 ft | 411 kts | 301° |
| 2026-05-07 00:37 | 33.50158 | -104.60210 | 31887 ft | 411 kts | 301° |
| 2026-05-07 00:38 | 33.54153 | -104.65104 | 31868 ft | 411 kts | 301° |
| 2026-05-07 00:38 | 33.58147 | -104.70002 | 31851 ft | 411 kts | 301° |
| 2026-05-07 00:39 | 33.62142 | -104.74910 | 31841 ft | 411 kts | 301° |
| 2026-05-07 00:39 | 33.66142 | -104.79830 | 31845 ft | 411 kts | 301° |
| 2026-05-07 00:40 | 33.70133 | -104.84747 | 31852 ft | 411 kts | 301° |
| 2026-05-07 00:40 | 33.74121 | -104.89667 | 31858 ft | 411 kts | 301° |
| 2026-05-07 00:41 | 33.78082 | -104.94561 | 31865 ft | 411 kts | 301° |
| 2026-05-07 00:41 | 33.82061 | -104.99484 | 31875 ft | 410 kts | 301° |
| 2026-05-07 00:42 | 33.86037 | -105.04408 | 31883 ft | 410 kts | 301° |
| 2026-05-07 00:42 | 33.90005 | -105.09332 | 31885 ft | 409 kts | 301° |
| 2026-05-07 00:43 | 33.93964 | -105.14250 | 31891 ft | 409 kts | 301° |
| 2026-05-07 00:43 | 33.97918 | -105.19170 | 31894 ft | 408 kts | 301° |
| 2026-05-07 00:44 | 34.01870 | -105.24095 | 31900 ft | 409 kts | 301° |
| 2026-05-07 00:44 | 34.05819 | -105.29022 | 31906 ft | 408 kts | 301° |
| 2026-05-07 00:45 | 34.09758 | -105.33944 | 31909 ft | 408 kts | 301° |
| 2026-05-07 00:45 | 34.13696 | -105.38873 | 31918 ft | 407 kts | 301° |
| 2026-05-07 00:46 | 34.17627 | -105.43798 | 31921 ft | 407 kts | 301° |
| 2026-05-07 00:46 | 34.21531 | -105.48697 | 31923 ft | 407 kts | 301° |
| 2026-05-07 00:47 | 34.25457 | -105.53630 | 31933 ft | 407 kts | 301° |
| 2026-05-07 00:47 | 34.29382 | -105.58568 | 31934 ft | 407 kts | 301° |
| 2026-05-07 00:48 | 34.33303 | -105.63507 | 31947 ft | 407 kts | 301° |
| 2026-05-07 00:48 | 34.37060 | -105.68561 | 31945 ft | 391 kts | 291° |
| 2026-05-07 00:49 | 34.39942 | -105.74109 | 31962 ft | 391 kts | 291° |
| 2026-05-07 00:49 | 34.42843 | -105.79685 | 31963 ft | 391 kts | 291° |
| 2026-05-07 00:50 | 34.45731 | -105.85279 | 31964 ft | 392 kts | 291° |
| 2026-05-07 00:50 | 34.48620 | -105.90890 | 31967 ft | 393 kts | 292° |
| 2026-05-07 00:51 | 34.51516 | -105.96523 | 31975 ft | 394 kts | 292° |
| 2026-05-07 00:51 | 34.54418 | -106.02177 | 31973 ft | 396 kts | 292° |
| 2026-05-07 00:52 | 34.57330 | -106.07858 | 31970 ft | 397 kts | 293° |
| 2026-05-07 00:52 | 34.60250 | -106.13564 | 31969 ft | 399 kts | 293° |
| 2026-05-07 00:53 | 34.63160 | -106.19262 | 31965 ft | 401 kts | 294° |
| 2026-05-07 00:53 | 34.66102 | -106.25029 | 31960 ft | 403 kts | 294° |
| 2026-05-07 00:54 | 34.69059 | -106.30838 | 31938 ft | 405 kts | 295° |
| 2026-05-07 00:54 | 34.72025 | -106.36672 | 31928 ft | 407 kts | 295° |
| 2026-05-07 00:55 | 34.74998 | -106.42533 | 31945 ft | 408 kts | 295° |
| 2026-05-07 00:55 | 34.77986 | -106.48429 | 31945 ft | 410 kts | 296° |
| 2026-05-07 00:56 | 34.80980 | -106.54350 | 31978 ft | 412 kts | 296° |
| 2026-05-07 00:56 | 34.83982 | -106.60294 | 31999 ft | 413 kts | 296° |
| 2026-05-07 00:57 | 34.86989 | -106.66259 | 32013 ft | 414 kts | 296° |
| 2026-05-07 00:57 | 34.90003 | -106.72250 | 32042 ft | 415 kts | 297° |
| 2026-05-07 00:58 | 34.93002 | -106.78219 | 32036 ft | 416 kts | 297° |
| 2026-05-07 00:58 | 34.96022 | -106.84242 | 32037 ft | 417 kts | 297° |
| 2026-05-07 00:59 | 35.00568 | -106.93324 | 32047 ft | 419 kts | 298° |
| 2026-05-07 01:00 | 35.03604 | -106.99406 | 32037 ft | 420 kts | 298° |
| 2026-05-07 01:00 | 35.06648 | -107.05512 | 32013 ft | 422 kts | 298° |
| 2026-05-07 01:01 | 35.09697 | -107.11638 | 31979 ft | 423 kts | 298° |
| 2026-05-07 01:01 | 35.12749 | -107.17784 | 31949 ft | 424 kts | 299° |
| 2026-05-07 01:02 | 35.15806 | -107.23948 | 31927 ft | 425 kts | 300° |
| 2026-05-07 01:02 | 35.18871 | -107.30140 | 31928 ft | 426 kts | 300° |
| 2026-05-07 01:03 | 35.21939 | -107.36352 | 31934 ft | 427 kts | 300° |
| 2026-05-07 01:03 | 35.25019 | -107.42595 | 31931 ft | 429 kts | 301° |
| 2026-05-07 01:04 | 35.28086 | -107.48826 | 31943 ft | 431 kts | 301° |
| 2026-05-07 01:04 | 35.31180 | -107.55121 | 31983 ft | 432 kts | 301° |
| 2026-05-07 01:05 | 35.33775 | -107.60412 | 32002 ft | 433 kts | 302° |
| 2026-05-07 01:05 | 35.37386 | -107.67786 | 32016 ft | 435 kts | 302° |
| 2026-05-07 01:06 | 35.40503 | -107.74165 | 32026 ft | 437 kts | 303° |
| 2026-05-07 01:06 | 35.43122 | -107.79531 | 32019 ft | 439 kts | 303° |
| 2026-05-07 01:07 | 35.46256 | -107.85961 | 32002 ft | 440 kts | 303° |
| 2026-05-07 01:07 | 35.49393 | -107.92409 | 31975 ft | 440 kts | 303° |
| 2026-05-07 01:08 | 35.52526 | -107.98878 | 31948 ft | 441 kts | 302° |
| 2026-05-07 01:08 | 35.55061 | -108.05726 | 31945 ft | 444 kts | 297° |
| 2026-05-07 01:09 | 35.57548 | -108.12682 | 31945 ft | 445 kts | 297° |
| 2026-05-07 01:09 | 35.60031 | -108.19664 | 31944 ft | 446 kts | 298° |
| 2026-05-07 01:10 | 35.62517 | -108.26671 | 31942 ft | 447 kts | 298° |
| 2026-05-07 01:10 | 35.65003 | -108.33696 | 31950 ft | 448 kts | 298° |
| 2026-05-07 01:11 | 35.67490 | -108.40741 | 31955 ft | 449 kts | 298° |
| 2026-05-07 01:11 | 35.69976 | -108.47801 | 31976 ft | 450 kts | 298° |
| 2026-05-07 01:12 | 35.72446 | -108.54828 | 31990 ft | 451 kts | 298° |
| 2026-05-07 01:12 | 35.74931 | -108.61915 | 32016 ft | 452 kts | 298° |
| 2026-05-07 01:13 | 35.77419 | -108.69026 | 32018 ft | 452 kts | 298° |
| 2026-05-07 01:13 | 35.79906 | -108.76151 | 32015 ft | 453 kts | 298° |
| 2026-05-07 01:14 | 35.82395 | -108.83297 | 32030 ft | 454 kts | 298° |
| 2026-05-07 01:14 | 35.84882 | -108.90455 | 32050 ft | 454 kts | 298° |
| 2026-05-07 01:15 | 35.87363 | -108.97615 | 32056 ft | 454 kts | 298° |
| 2026-05-07 01:15 | 35.89845 | -109.04791 | 32051 ft | 454 kts | 298° |
| 2026-05-07 01:16 | 35.92320 | -109.11966 | 32023 ft | 454 kts | 298° |
| 2026-05-07 01:16 | 35.94792 | -109.19147 | 32004 ft | 454 kts | 298° |
| 2026-05-07 01:17 | 35.97256 | -109.26320 | 31983 ft | 454 kts | 298° |
| 2026-05-07 01:17 | 35.99786 | -109.33392 | 31969 ft | 448 kts | 306° |
| 2026-05-07 01:18 | 36.03230 | -109.39738 | 31973 ft | 446 kts | 309° |
| 2026-05-07 01:18 | 36.06686 | -109.46108 | 31967 ft | 446 kts | 309° |
| 2026-05-07 01:19 | 36.10136 | -109.52473 | 31964 ft | 445 kts | 309° |
| 2026-05-07 01:19 | 36.13580 | -109.58838 | 31968 ft | 445 kts | 309° |
| 2026-05-07 01:20 | 36.17022 | -109.65212 | 31967 ft | 445 kts | 309° |
| 2026-05-07 01:20 | 36.20460 | -109.71588 | 31962 ft | 445 kts | 308° |
| 2026-05-07 01:21 | 36.23893 | -109.77970 | 31967 ft | 445 kts | 308° |
| 2026-05-07 01:21 | 36.27325 | -109.84359 | 31971 ft | 445 kts | 308° |
| 2026-05-07 01:22 | 36.30753 | -109.90754 | 31976 ft | 445 kts | 308° |
| 2026-05-07 01:22 | 36.34159 | -109.97121 | 31980 ft | 446 kts | 308° |
| 2026-05-07 01:23 | 36.37583 | -110.03532 | 31978 ft | 446 kts | 308° |
| 2026-05-07 01:23 | 36.41005 | -110.09950 | 31981 ft | 446 kts | 308° |
| 2026-05-07 01:24 | 36.44425 | -110.16381 | 31989 ft | 446 kts | 308° |
| 2026-05-07 01:24 | 36.47835 | -110.22802 | 31986 ft | 445 kts | 308° |
| 2026-05-07 01:25 | 36.51246 | -110.29238 | 31991 ft | 445 kts | 308° |
| 2026-05-07 01:25 | 36.54649 | -110.35666 | 31988 ft | 445 kts | 308° |
| 2026-05-07 01:26 | 36.57955 | -110.42181 | 31990 ft | 446 kts | 306° |
| 2026-05-07 01:26 | 36.61214 | -110.48758 | 31989 ft | 446 kts | 307° |
| 2026-05-07 01:27 | 36.64471 | -110.55327 | 31988 ft | 445 kts | 307° |
| 2026-05-07 01:27 | 36.67721 | -110.61895 | 31987 ft | 445 kts | 307° |
| 2026-05-07 01:28 | 36.70963 | -110.68456 | 31981 ft | 444 kts | 307° |
| 2026-05-07 01:28 | 36.74197 | -110.75017 | 31967 ft | 444 kts | 306° |
| 2026-05-07 01:29 | 36.77428 | -110.81584 | 31978 ft | 445 kts | 306° |
| 2026-05-07 01:29 | 36.80657 | -110.88159 | 31971 ft | 444 kts | 306° |
| 2026-05-07 01:30 | 36.83875 | -110.94724 | 31951 ft | 443 kts | 306° |
| 2026-05-07 01:30 | 36.87069 | -111.01253 | 31958 ft | 443 kts | 306° |
| 2026-05-07 01:31 | 36.90273 | -111.07817 | 31974 ft | 442 kts | 306° |
| 2026-05-07 01:31 | 36.93473 | -111.14385 | 31993 ft | 443 kts | 306° |
| 2026-05-07 01:32 | 36.96673 | -111.20965 | 32003 ft | 442 kts | 306° |
| 2026-05-07 01:32 | 36.99861 | -111.27534 | 32019 ft | 442 kts | 306° |
| 2026-05-07 01:33 | 37.03051 | -111.34119 | 32025 ft | 442 kts | 306° |
| 2026-05-07 01:33 | 37.06236 | -111.40708 | 32027 ft | 443 kts | 306° |
| 2026-05-07 01:34 | 37.09421 | -111.47310 | 32014 ft | 443 kts | 306° |
| 2026-05-07 01:34 | 37.12587 | -111.53884 | 31989 ft | 444 kts | 306° |
| 2026-05-07 01:35 | 37.15765 | -111.60497 | 31960 ft | 443 kts | 306° |
| 2026-05-07 01:35 | 37.18940 | -111.67112 | 31935 ft | 442 kts | 306° |
| 2026-05-07 01:36 | 37.21945 | -111.73867 | 31931 ft | 445 kts | 302° |
| 2026-05-07 01:36 | 37.24783 | -111.80762 | 31929 ft | 444 kts | 302° |
| 2026-05-07 01:37 | 37.27640 | -111.87646 | 31941 ft | 445 kts | 303° |
| 2026-05-07 01:37 | 37.30495 | -111.94531 | 31945 ft | 444 kts | 303° |
| 2026-05-07 01:38 | 37.33341 | -112.01409 | 31953 ft | 444 kts | 302° |
| 2026-05-07 01:38 | 37.36164 | -112.08248 | 31971 ft | 443 kts | 302° |
| 2026-05-07 01:39 | 37.39003 | -112.15139 | 32016 ft | 443 kts | 302° |
| 2026-05-07 01:39 | 37.41834 | -112.22026 | 32049 ft | 443 kts | 302° |
| 2026-05-07 01:40 | 37.44658 | -112.28910 | 32060 ft | 443 kts | 302° |
| 2026-05-07 01:40 | 37.47481 | -112.35807 | 32066 ft | 442 kts | 302° |
| 2026-05-07 01:41 | 37.50294 | -112.42696 | 32063 ft | 442 kts | 302° |
| 2026-05-07 01:41 | 37.53090 | -112.49556 | 32045 ft | 442 kts | 302° |
| 2026-05-07 01:42 | 37.55901 | -112.56468 | 32034 ft | 443 kts | 302° |
| 2026-05-07 01:42 | 37.58707 | -112.63383 | 32046 ft | 443 kts | 302° |
| 2026-05-07 01:43 | 37.61511 | -112.70310 | 32073 ft | 444 kts | 302° |
| 2026-05-07 01:43 | 37.64313 | -112.77245 | 32109 ft | 444 kts | 301° |
| 2026-05-07 01:44 | 37.67113 | -112.84191 | 32139 ft | 444 kts | 301° |
| 2026-05-07 01:44 | 37.69909 | -112.91143 | 32177 ft | 444 kts | 301° |
| 2026-05-07 01:45 | 37.72700 | -112.98099 | 32188 ft | 444 kts | 301° |
| 2026-05-07 01:45 | 37.75485 | -113.05052 | 32191 ft | 443 kts | 301° |
| 2026-05-07 01:46 | 37.78263 | -113.12005 | 32192 ft | 443 kts | 301° |
| 2026-05-07 01:46 | 37.81041 | -113.18975 | 32174 ft | 443 kts | 301° |
| 2026-05-07 01:47 | 37.83795 | -113.25900 | 32144 ft | 444 kts | 301° |
| 2026-05-07 01:47 | 37.86563 | -113.32873 | 32113 ft | 443 kts | 301° |
| 2026-05-07 01:48 | 37.89326 | -113.39845 | 32084 ft | 443 kts | 301° |
| 2026-05-07 01:48 | 37.92086 | -113.46826 | 32052 ft | 443 kts | 301° |
| 2026-05-07 01:49 | 37.94441 | -113.54051 | 32055 ft | 446 kts | 294° |
| 2026-05-07 01:49 | 37.96518 | -113.61473 | 32057 ft | 447 kts | 294° |
| 2026-05-07 01:50 | 37.98578 | -113.68910 | 32056 ft | 447 kts | 294° |
| 2026-05-07 01:50 | 38.00630 | -113.76346 | 32062 ft | 447 kts | 294° |
| 2026-05-07 01:51 | 38.02678 | -113.83788 | 32063 ft | 447 kts | 294° |
| 2026-05-07 01:51 | 38.04712 | -113.91197 | 32067 ft | 447 kts | 293° |
| 2026-05-07 01:52 | 38.06752 | -113.98652 | 32067 ft | 447 kts | 293° |
| 2026-05-07 01:52 | 38.08787 | -114.06110 | 32064 ft | 447 kts | 293° |
| 2026-05-07 01:53 | 38.10816 | -114.13569 | 32062 ft | 447 kts | 293° |
| 2026-05-07 01:53 | 38.12842 | -114.21035 | 32056 ft | 447 kts | 293° |
| 2026-05-07 01:54 | 38.14863 | -114.28506 | 32057 ft | 447 kts | 293° |
| 2026-05-07 01:54 | 38.16876 | -114.35970 | 32046 ft | 447 kts | 293° |
| 2026-05-07 01:55 | 38.18886 | -114.43445 | 32038 ft | 446 kts | 293° |
| 2026-05-07 01:55 | 38.20551 | -114.49653 | 32034 ft | 446 kts | 293° |
| 2026-05-07 01:56 | 38.22550 | -114.57124 | 32030 ft | 446 kts | 292° |
| 2026-05-07 01:56 | 38.24546 | -114.64606 | 32028 ft | 447 kts | 292° |
| 2026-05-07 01:57 | 38.26537 | -114.72095 | 32017 ft | 446 kts | 292° |
| 2026-05-07 01:57 | 38.28523 | -114.79583 | 32003 ft | 446 kts | 292° |
| 2026-05-07 01:58 | 38.30505 | -114.87073 | 32012 ft | 446 kts | 292° |
| 2026-05-07 01:58 | 38.32445 | -114.94522 | 31991 ft | 448 kts | 288° |
| 2026-05-07 01:58 | 38.32840 | -114.98473 | 32006 ft | 454 kts | 274° |
| 2026-05-07 01:59 | 38.32885 | -115.02499 | 31998 ft | 455 kts | 275° |
| 2026-05-07 01:59 | 38.33008 | -115.10567 | 31998 ft | 456 kts | 275° |
| 2026-05-07 02:00 | 38.33076 | -115.18641 | 31996 ft | 456 kts | 274° |
| 2026-05-07 02:00 | 38.33131 | -115.26706 | 32004 ft | 456 kts | 274° |
| 2026-05-07 02:01 | 38.33180 | -115.34781 | 32002 ft | 456 kts | 274° |
| 2026-05-07 02:01 | 38.33224 | -115.42852 | 32008 ft | 456 kts | 274° |
| 2026-05-07 02:02 | 38.33261 | -115.50919 | 32011 ft | 455 kts | 274° |
| 2026-05-07 02:02 | 38.33294 | -115.58930 | 32006 ft | 455 kts | 274° |
| 2026-05-07 02:03 | 38.33321 | -115.67003 | 32010 ft | 455 kts | 274° |
| 2026-05-07 02:03 | 38.33342 | -115.75071 | 32015 ft | 455 kts | 274° |
| 2026-05-07 02:04 | 38.33358 | -115.83144 | 32014 ft | 455 kts | 274° |
| 2026-05-07 02:04 | 38.33368 | -115.91212 | 32018 ft | 455 kts | 274° |
| 2026-05-07 02:05 | 38.33373 | -115.99279 | 32021 ft | 455 kts | 274° |
| 2026-05-07 02:05 | 38.33373 | -116.07342 | 32022 ft | 455 kts | 274° |
| 2026-05-07 02:06 | 38.33367 | -116.15400 | 32019 ft | 455 kts | 274° |
| 2026-05-07 02:06 | 38.33355 | -116.23402 | 32028 ft | 455 kts | 274° |
| 2026-05-07 02:07 | 38.33341 | -116.31474 | 32030 ft | 455 kts | 274° |
| 2026-05-07 02:07 | 38.34748 | -116.43290 | 32049 ft | 451 kts | 284° |
| 2026-05-07 02:08 | 38.35859 | -116.51145 | 32052 ft | 450 kts | 284° |
| 2026-05-07 02:08 | 38.36962 | -116.58986 | 32055 ft | 450 kts | 283° |
| 2026-05-07 02:09 | 38.38060 | -116.66835 | 32059 ft | 450 kts | 283° |
| 2026-05-07 02:09 | 38.39152 | -116.74673 | 32062 ft | 449 kts | 283° |
| 2026-05-07 02:10 | 38.40240 | -116.82528 | 32067 ft | 449 kts | 283° |
| 2026-05-07 02:10 | 38.41314 | -116.90317 | 32072 ft | 449 kts | 283° |
| 2026-05-07 02:11 | 38.42390 | -116.98166 | 32065 ft | 449 kts | 283° |
| 2026-05-07 02:11 | 38.43460 | -117.06012 | 32069 ft | 449 kts | 283° |
| 2026-05-07 02:12 | 38.44526 | -117.13862 | 32066 ft | 449 kts | 283° |
| 2026-05-07 02:12 | 38.45588 | -117.21726 | 32073 ft | 449 kts | 283° |
| 2026-05-07 02:13 | 38.46642 | -117.29581 | 32068 ft | 449 kts | 283° |
| 2026-05-07 02:13 | 38.47690 | -117.37425 | 32066 ft | 449 kts | 283° |
| 2026-05-07 02:14 | 38.48733 | -117.45278 | 32068 ft | 448 kts | 283° |
| 2026-05-07 02:14 | 38.49772 | -117.53129 | 32066 ft | 449 kts | 283° |
| 2026-05-07 02:15 | 38.50804 | -117.60981 | 32072 ft | 448 kts | 283° |
| 2026-05-07 02:15 | 38.51831 | -117.68836 | 32067 ft | 448 kts | 283° |
| 2026-05-07 02:16 | 38.52846 | -117.76638 | 32069 ft | 448 kts | 283° |
| 2026-05-07 02:16 | 38.53861 | -117.84484 | 32071 ft | 448 kts | 282° |
| 2026-05-07 02:17 | 38.54871 | -117.92334 | 32066 ft | 448 kts | 282° |
| 2026-05-07 02:17 | 38.55877 | -118.00186 | 32064 ft | 447 kts | 282° |
| 2026-05-07 02:18 | 38.56876 | -118.08020 | 32059 ft | 447 kts | 282° |
| 2026-05-07 02:18 | 38.58049 | -118.15804 | 32056 ft | 444 kts | 289° |
| 2026-05-07 02:19 | 38.59666 | -118.23427 | 32064 ft | 444 kts | 288° |
| 2026-05-07 02:19 | 38.61215 | -118.31073 | 32085 ft | 444 kts | 287° |
| 2026-05-07 02:20 | 38.62748 | -118.38725 | 32101 ft | 444 kts | 287° |
| 2026-05-07 02:20 | 38.64275 | -118.46373 | 32124 ft | 443 kts | 287° |
| 2026-05-07 02:21 | 38.65786 | -118.53967 | 32140 ft | 444 kts | 287° |
| 2026-05-07 02:21 | 38.67331 | -118.61607 | 32144 ft | 443 kts | 287° |
| 2026-05-07 02:22 | 38.68870 | -118.69242 | 32135 ft | 443 kts | 287° |
| 2026-05-07 02:22 | 38.70404 | -118.76885 | 32113 ft | 443 kts | 287° |
| 2026-05-07 02:23 | 38.71906 | -118.84401 | 32100 ft | 443 kts | 287° |
| 2026-05-07 02:23 | 38.73430 | -118.92049 | 32075 ft | 443 kts | 287° |
| 2026-05-07 02:24 | 38.74948 | -118.99694 | 32068 ft | 443 kts | 287° |
| 2026-05-07 02:24 | 38.76458 | -119.07333 | 32067 ft | 442 kts | 287° |
| 2026-05-07 02:25 | 38.77954 | -119.14925 | 32069 ft | 442 kts | 287° |
| 2026-05-07 02:25 | 38.79457 | -119.22580 | 32066 ft | 442 kts | 287° |
| 2026-05-07 02:26 | 38.80198 | -119.26405 | 31938 ft | 442 kts | 287° |
| 2026-05-07 02:26 | 38.80946 | -119.30209 | 31875 ft | 440 kts | 287° |
| 2026-05-07 02:26 | 38.81693 | -119.34026 | 32038 ft | 443 kts | 287° |
| 2026-05-07 02:26 | 38.82440 | -119.37865 | 32082 ft | 443 kts | 287° |
| 2026-05-07 02:27 | 38.83926 | -119.45518 | 32103 ft | 442 kts | 286° |
| 2026-05-07 02:27 | 38.85407 | -119.53176 | 32112 ft | 442 kts | 287° |
| 2026-05-07 02:28 | 38.86880 | -119.60826 | 32090 ft | 438 kts | 286° |
| 2026-05-07 02:28 | 38.87602 | -119.64584 | 31614 ft | 432 kts | 286° |
| 2026-05-07 02:28 | 38.88311 | -119.68282 | 30940 ft | 433 kts | 286° |
| 2026-05-07 02:29 | 38.89037 | -119.72077 | 30319 ft | 432 kts | 286° |
| 2026-05-07 02:29 | 38.89742 | -119.75763 | 29727 ft | 429 kts | 286° |
| 2026-05-07 02:29 | 38.90448 | -119.79465 | 29159 ft | 425 kts | 286° |
| 2026-05-07 02:29 | 38.91146 | -119.83135 | 28634 ft | 421 kts | 286° |
| 2026-05-07 02:30 | 38.91836 | -119.86770 | 28181 ft | 418 kts | 286° |
| 2026-05-07 02:30 | 38.92521 | -119.90383 | 27651 ft | 415 kts | 286° |
| 2026-05-07 02:30 | 38.93200 | -119.93969 | 27123 ft | 412 kts | 286° |
| 2026-05-07 02:30 | 38.93873 | -119.97530 | 26590 ft | 410 kts | 286° |
| 2026-05-07 02:31 | 38.94543 | -120.01082 | 26062 ft | 408 kts | 286° |
| 2026-05-07 02:31 | 38.95207 | -120.04612 | 25544 ft | 406 kts | 286° |
| 2026-05-07 02:31 | 38.95869 | -120.08134 | 25022 ft | 404 kts | 286° |
| 2026-05-07 02:31 | 38.96527 | -120.11638 | 24509 ft | 403 kts | 285° |
| 2026-05-07 02:32 | 38.97182 | -120.15133 | 24001 ft | 402 kts | 285° |
| 2026-05-07 02:32 | 38.97834 | -120.18619 | 23415 ft | 401 kts | 285° |
| 2026-05-07 02:32 | 38.98485 | -120.22102 | 22862 ft | 399 kts | 285° |
| 2026-05-07 02:32 | 38.99129 | -120.25556 | 22370 ft | 396 kts | 285° |
| 2026-05-07 02:33 | 38.99784 | -120.28988 | 21792 ft | 395 kts | 286° |
| 2026-05-07 02:33 | 39.00444 | -120.32408 | 21293 ft | 393 kts | 286° |
| 2026-05-07 02:33 | 39.01098 | -120.35807 | 20784 ft | 391 kts | 285° |
| 2026-05-07 02:33 | 39.01750 | -120.39199 | 20251 ft | 390 kts | 285° |
| 2026-05-07 02:34 | 39.02399 | -120.42584 | 19723 ft | 390 kts | 285° |
| 2026-05-07 02:34 | 39.03038 | -120.45920 | 19215 ft | 385 kts | 285° |
| 2026-05-07 02:34 | 39.03667 | -120.49213 | 18707 ft | 376 kts | 285° |
| 2026-05-07 02:34 | 39.04293 | -120.52490 | 18153 ft | 377 kts | 285° |
| 2026-05-07 02:35 | 39.04917 | -120.55765 | 17591 ft | 376 kts | 285° |
| 2026-05-07 02:35 | 39.05533 | -120.59003 | 17041 ft | 368 kts | 285° |
| 2026-05-07 02:35 | 39.06139 | -120.62195 | 16526 ft | 367 kts | 285° |
| 2026-05-07 02:35 | 39.06745 | -120.65388 | 16028 ft | 367 kts | 285° |
| 2026-05-07 02:36 | 39.07082 | -120.68641 | 15445 ft | 371 kts | 268° |
| 2026-05-07 02:36 | 39.06586 | -120.71884 | 14988 ft | 369 kts | 252° |
| 2026-05-07 02:36 | 39.05824 | -120.74980 | 14514 ft | 357 kts | 252° |
| 2026-05-07 02:36 | 39.05070 | -120.77994 | 14044 ft | 352 kts | 252° |
| 2026-05-07 02:37 | 39.04306 | -120.80991 | 13449 ft | 354 kts | 252° |
| 2026-05-07 02:37 | 39.03538 | -120.83968 | 12933 ft | 346 kts | 252° |
| 2026-05-07 02:37 | 39.02787 | -120.86857 | 12472 ft | 335 kts | 251° |
| 2026-05-07 02:37 | 39.02060 | -120.89649 | 12032 ft | 325 kts | 251° |
| 2026-05-07 02:38 | 39.01351 | -120.92364 | 11597 ft | 316 kts | 251° |
| 2026-05-07 02:38 | 39.00661 | -120.95004 | 11174 ft | 308 kts | 251° |
| 2026-05-07 02:38 | 38.99995 | -120.97548 | 10769 ft | 301 kts | 251° |
| 2026-05-07 02:38 | 38.99335 | -121.00066 | 10361 ft | 294 kts | 251° |
| 2026-05-07 02:39 | 38.98680 | -121.02565 | 9962 ft | 296 kts | 251° |
| 2026-05-07 02:39 | 38.98023 | -121.05074 | 9506 ft | 294 kts | 252° |
| 2026-05-07 02:39 | 38.97376 | -121.07537 | 9087 ft | 287 kts | 252° |
| 2026-05-07 02:39 | 38.96744 | -121.09935 | 8668 ft | 281 kts | 252° |
| 2026-05-07 02:40 | 38.96113 | -121.12331 | 8278 ft | 283 kts | 252° |
| 2026-05-07 02:40 | 38.95478 | -121.14736 | 7911 ft | 284 kts | 253° |
| 2026-05-07 02:40 | 38.94843 | -121.17140 | 7527 ft | 283 kts | 253° |
| 2026-05-07 02:40 | 38.94214 | -121.19521 | 7149 ft | 281 kts | 253° |
| 2026-05-07 02:41 | 38.93590 | -121.21877 | 6798 ft | 276 kts | 253° |
| 2026-05-07 02:41 | 38.92973 | -121.24208 | 6359 ft | 275 kts | 254° |
| 2026-05-07 02:41 | 38.92361 | -121.26511 | 5957 ft | 270 kts | 254° |
| 2026-05-07 02:41 | 38.91764 | -121.28764 | 5575 ft | 263 kts | 254° |
| 2026-05-07 02:42 | 38.91180 | -121.30964 | 5217 ft | 258 kts | 254° |
| 2026-05-07 02:42 | 38.90609 | -121.33110 | 4856 ft | 250 kts | 254° |
| 2026-05-07 02:42 | 38.90050 | -121.35212 | 4517 ft | 248 kts | 253° |
| 2026-05-07 02:42 | 38.89495 | -121.37296 | 4170 ft | 245 kts | 253° |
| 2026-05-07 02:43 | 38.88840 | -121.39263 | 3932 ft | 235 kts | 240° |
| 2026-05-07 02:43 | 38.87952 | -121.40968 | 3770 ft | 226 kts | 238° |
| 2026-05-07 02:43 | 38.87077 | -121.42633 | 3621 ft | 223 kts | 238° |
| 2026-05-07 02:43 | 38.86227 | -121.44254 | 3489 ft | 221 kts | 238° |
| 2026-05-07 02:44 | 38.85371 | -121.45886 | 3346 ft | 219 kts | 238° |
| 2026-05-07 02:44 | 38.84523 | -121.47505 | 3208 ft | 219 kts | 237° |
| 2026-05-07 02:44 | 38.83673 | -121.49124 | 3050 ft | 218 kts | 237° |
| 2026-05-07 02:44 | 38.82826 | -121.50738 | 2785 ft | 218 kts | 237° |
| 2026-05-07 02:45 | 38.81983 | -121.52341 | 2514 ft | 214 kts | 236° |
| 2026-05-07 02:45 | 38.81183 | -121.53862 | 2266 ft | 194 kts | 234° |
| 2026-05-07 02:45 | 38.80476 | -121.55206 | 2031 ft | 174 kts | 233° |
| 2026-05-07 02:45 | 38.79801 | -121.56487 | 1833 ft | 173 kts | 233° |
| 2026-05-07 02:46 | 38.79128 | -121.57760 | 1673 ft | 168 kts | 232° |
| 2026-05-07 02:46 | 38.78419 | -121.58828 | 1519 ft | 151 kts | 220° |
| 2026-05-07 02:46 | 38.77589 | -121.59597 | 1314 ft | 145 kts | 205° |
| 2026-05-07 02:46 | 38.76974 | -121.59924 | 1187 ft | 143 kts | 195° |
| 2026-05-07 02:47 | 38.76003 | -121.60116 | 1092 ft | 142 kts | 180° |
| 2026-05-07 02:47 | 38.74698 | -121.60027 | 813 ft | 142 kts | 175° |
| 2026-05-07 02:47 | 38.73694 | -121.60007 | 536 ft | 147 kts | 179° |
| 2026-05-07 02:47 | 38.72655 | -121.60055 | 312 ft | 151 kts | 179° |
| 2026-05-07 02:48 | 38.71590 | -121.60096 | 158 ft | 154 kts | 176° |
| 2026-05-07 02:48 | 38.70863 | -121.60098 | 102 ft | 155 kts | 176° |
| 2026-05-07 02:48 | 38.69822 | -121.60107 | 39 ft | 135 kts | 180° |
| 2026-05-07 02:48 | 38.69201 | -121.60129 | 39 ft | 37 kts | 182° |
| 2026-05-07 02:49 | 38.69068 | -121.60076 | 40 ft | 16 kts | 107° |
| 2026-05-07 02:49 | 38.69060 | -121.59957 | 39 ft | 9 kts | 89° |
| 2026-05-07 02:49 | 38.69060 | -121.59952 | 39 ft | 0 kts | 89° |
| 2026-05-07 02:50 | 38.69063 | -121.59916 | 39 ft | 10 kts | 75° |
| 2026-05-07 02:50 | 38.69129 | -121.59873 | 39 ft | 13 kts | 2° |
| 2026-05-07 02:51 | 38.69229 | -121.59873 | 39 ft | 16 kts | 359° |
| 2026-05-07 02:51 | 38.69348 | -121.59871 | 39 ft | 17 kts | 2° |
| 2026-05-07 02:51 | 38.69443 | -121.59859 | 39 ft | 13 kts | 30° |
| 2026-05-07 02:51 | 38.69465 | -121.59756 | 39 ft | 13 kts | 90° |
| 2026-05-07 02:52 | 38.69464 | -121.59626 | 39 ft | 16 kts | 92° |
| 2026-05-07 02:52 | 38.69453 | -121.59510 | 39 ft | 12 kts | 91° |
| 2026-05-07 02:52 | 38.69469 | -121.59434 | 39 ft | 8 kts | 44° |
| 2026-05-07 02:52 | 38.69511 | -121.59401 | 38 ft | 5 kts | 27° |
| 2026-05-07 02:53 | 38.69523 | -121.59393 | 39 ft | 0 kts | 28° |